Otter Lake, New York
Current Conditions -  °F | °C
As of 1:53 PM on Wednesday 26 Nov 2014 (Local Time) from KRME Reporting Station
Moderate Snow Moderate Snow  
Wind Chill: 31°   Ceiling: 1100
Heat Index: 31°   Visibility: 0.5mi
Dew Point: 30°   Wind: 3mph
Humidity: 96%   Direction: 300°WNW
Pressure: 30.11"   Gusts: NA
Location:  43.501°N, 75.1602°W
Report Text: KRME 261853Z 30003KT 1/2SM SN FZFG VV011 M01/M01 A3011 RMK AO2 SLP201 P0005 T10061011 RVRNO
Loading
Personal Weather Stations






























Interactive Weather Map New forecast layout! Learn more

10-Day Weather Forecast

Advertisements
Track Severe Weather on mobile